sensor_id;sensor_type;location;lat;lon;timestamp;temperature;humidity
27747;DHT22;15138;51.012;4.692;2024-01-30T00:01:20;9.00;66.00
27747;DHT22;15138;51.012;4.692;2024-01-30T00:03:48;9.10;99.90
27747;DHT22;15138;51.012;4.692;2024-01-30T00:06:19;9.10;99.90
27747;DHT22;15138;51.012;4.692;2024-01-30T00:08:47;9.10;99.90
27747;DHT22;15138;51.012;4.692;2024-01-30T00:11:18;9.10;98.50
27747;DHT22;15138;51.012;4.692;2024-01-30T00:13:46;9.10;55.40
27747;DHT22;15138;51.012;4.692;2024-01-30T00:16:20;9.10;48.20
27747;DHT22;15138;51.012;4.692;2024-01-30T00:18:49;9.10;50.60
27747;DHT22;15138;51.012;4.692;2024-01-30T00:21:17;9.20;93.00
27747;DHT22;15138;51.012;4.692;2024-01-30T00:23:46;9.20;90.70
27747;DHT22;15138;51.012;4.692;2024-01-30T00:26:14;9.20;53.00
27747;DHT22;15138;51.012;4.692;2024-01-30T00:28:44;9.20;21.50
27747;DHT22;15138;51.012;4.692;2024-01-30T00:31:13;9.20;33.60
27747;DHT22;15138;51.012;4.692;2024-01-30T00:33:41;9.20;19.40
27747;DHT22;15138;51.012;4.692;2024-01-30T00:36:10;9.30;16.10
27747;DHT22;15138;51.012;4.692;2024-01-30T00:38:38;9.30;17.70
27747;DHT22;15138;51.012;4.692;2024-01-30T00:41:08;9.30;9.90
27747;DHT22;15138;51.012;4.692;2024-01-30T00:43:36;9.20;1.00
27747;DHT22;15138;51.012;4.692;2024-01-30T00:46:06;9.30;1.00
27747;DHT22;15138;51.012;4.692;2024-01-30T00:48:34;9.30;4.80
27747;DHT22;15138;51.012;4.692;2024-01-30T00:51:03;9.30;1.00
27747;DHT22;15138;51.012;4.692;2024-01-30T00:53:31;9.30;1.00
27747;DHT22;15138;51.012;4.692;2024-01-30T00:56:00;9.30;1.00
27747;DHT22;15138;51.012;4.692;2024-01-30T00:58:28;9.40;1.00
27747;DHT22;15138;51.012;4.692;2024-01-30T01:00:56;9.40;1.00
27747;DHT22;15138;51.012;4.692;2024-01-30T01:03:26;9.40;1.00
27747;DHT22;15138;51.012;4.692;2024-01-30T01:05:54;9.40;1.00
27747;DHT22;15138;51.012;4.692;2024-01-30T01:08:23;9.50;1.00
27747;DHT22;15138;51.012;4.692;2024-01-30T01:10:52;9.50;1.00
27747;DHT22;15138;51.012;4.692;2024-01-30T01:13:20;9.60;1.00
27747;DHT22;15138;51.012;4.692;2024-01-30T01:15:49;9.60;1.00
27747;DHT22;15138;51.012;4.692;2024-01-30T01:18:17;9.50;1.00
27747;DHT22;15138;51.012;4.692;2024-01-30T01:20:47;9.60;1.00
27747;DHT22;15138;51.012;4.692;2024-01-30T01:23:15;9.50;1.00
27747;DHT22;15138;51.012;4.692;2024-01-30T01:25:43;9.50;1.00
27747;DHT22;15138;51.012;4.692;2024-01-30T01:28:12;9.50;1.00
27747;DHT22;15138;51.012;4.692;2024-01-30T01:30:40;9.50;1.00
27747;DHT22;15138;51.012;4.692;2024-01-30T01:33:08;9.60;1.00
27747;DHT22;15138;51.012;4.692;2024-01-30T01:35:37;9.60;1.00
27747;DHT22;15138;51.012;4.692;2024-01-30T01:38:08;9.70;1.00
27747;DHT22;15138;51.012;4.692;2024-01-30T01:40:36;9.60;1.00
27747;DHT22;15138;51.012;4.692;2024-01-30T01:43:06;9.60;1.00
27747;DHT22;15138;51.012;4.692;2024-01-30T01:45:34;9.70;1.00
27747;DHT22;15138;51.012;4.692;2024-01-30T01:48:03;9.70;1.00
27747;DHT22;15138;51.012;4.692;2024-01-30T01:50:32;9.70;1.00
27747;DHT22;15138;51.012;4.692;2024-01-30T01:53:02;9.70;1.00
27747;DHT22;15138;51.012;4.692;2024-01-30T01:55:32;9.70;1.00
27747;DHT22;15138;51.012;4.692;2024-01-30T01:58:01;9.70;1.00
27747;DHT22;15138;51.012;4.692;2024-01-30T02:00:29;9.70;1.00
27747;DHT22;15138;51.012;4.692;2024-01-30T02:02:59;9.70;1.00
27747;DHT22;15138;51.012;4.692;2024-01-30T02:05:27;9.70;1.00
27747;DHT22;15138;51.012;4.692;2024-01-30T02:07:56;9.70;1.00
27747;DHT22;15138;51.012;4.692;2024-01-30T02:10:24;9.70;1.00
27747;DHT22;15138;51.012;4.692;2024-01-30T02:12:54;9.80;1.00
27747;DHT22;15138;51.012;4.692;2024-01-30T02:15:22;9.70;1.00
27747;DHT22;15138;51.012;4.692;2024-01-30T02:17:51;9.80;1.00
27747;DHT22;15138;51.012;4.692;2024-01-30T02:20:19;9.80;1.00
27747;DHT22;15138;51.012;4.692;2024-01-30T02:22:49;9.80;1.00
27747;DHT22;15138;51.012;4.692;2024-01-30T02:25:17;9.80;1.00
27747;DHT22;15138;51.012;4.692;2024-01-30T02:27:45;9.80;1.00
27747;DHT22;15138;51.012;4.692;2024-01-30T02:30:13;9.90;1.00
27747;DHT22;15138;51.012;4.692;2024-01-30T02:32:42;9.80;1.00
27747;DHT22;15138;51.012;4.692;2024-01-30T02:35:10;9.80;1.00
27747;DHT22;15138;51.012;4.692;2024-01-30T02:37:38;9.80;1.00
27747;DHT22;15138;51.012;4.692;2024-01-30T02:40:08;9.70;1.00
27747;DHT22;15138;51.012;4.692;2024-01-30T02:42:36;9.80;1.00
27747;DHT22;15138;51.012;4.692;2024-01-30T02:45:05;9.70;1.00
27747;DHT22;15138;51.012;4.692;2024-01-30T02:47:33;9.80;1.00
27747;DHT22;15138;51.012;4.692;2024-01-30T02:50:02;9.70;1.00
27747;DHT22;15138;51.012;4.692;2024-01-30T02:52:30;9.70;1.00
27747;DHT22;15138;51.012;4.692;2024-01-30T02:54:59;9.80;1.00
27747;DHT22;15138;51.012;4.692;2024-01-30T02:57:28;9.80;1.00
27747;DHT22;15138;51.012;4.692;2024-01-30T02:59:57;9.80;1.00
27747;DHT22;15138;51.012;4.692;2024-01-30T03:02:25;9.70;1.00
27747;DHT22;15138;51.012;4.692;2024-01-30T03:04:53;9.70;1.00
27747;DHT22;15138;51.012;4.692;2024-01-30T03:07:21;9.70;1.00
27747;DHT22;15138;51.012;4.692;2024-01-30T03:09:49;9.70;1.00
27747;DHT22;15138;51.012;4.692;2024-01-30T03:12:18;9.70;1.00
27747;DHT22;15138;51.012;4.692;2024-01-30T03:14:47;9.70;1.00
27747;DHT22;15138;51.012;4.692;2024-01-30T03:17:16;9.60;1.00
27747;DHT22;15138;51.012;4.692;2024-01-30T03:19:44;9.70;1.00
27747;DHT22;15138;51.012;4.692;2024-01-30T03:22:12;9.70;1.80
27747;DHT22;15138;51.012;4.692;2024-01-30T03:24:41;9.70;1.00
27747;DHT22;15138;51.012;4.692;2024-01-30T03:27:09;9.80;1.00
27747;DHT22;15138;51.012;4.692;2024-01-30T03:29:38;9.70;1.00
27747;DHT22;15138;51.012;4.692;2024-01-30T03:32:07;9.80;1.00
27747;DHT22;15138;51.012;4.692;2024-01-30T03:34:35;9.80;1.00
27747;DHT22;15138;51.012;4.692;2024-01-30T03:37:04;9.90;1.00
27747;DHT22;15138;51.012;4.692;2024-01-30T03:39:32;9.90;1.00
27747;DHT22;15138;51.012;4.692;2024-01-30T03:42:00;9.90;1.00
27747;DHT22;15138;51.012;4.692;2024-01-30T03:44:28;10.00;1.00
27747;DHT22;15138;51.012;4.692;2024-01-30T03:46:56;10.00;1.00
27747;DHT22;15138;51.012;4.692;2024-01-30T03:49:26;10.00;1.00
27747;DHT22;15138;51.012;4.692;2024-01-30T03:51:54;10.00;1.00
27747;DHT22;15138;51.012;4.692;2024-01-30T03:54:22;10.10;1.00
27747;DHT22;15138;51.012;4.692;2024-01-30T03:56:50;10.10;1.00
27747;DHT22;15138;51.012;4.692;2024-01-30T03:59:18;10.00;1.00
27747;DHT22;15138;51.012;4.692;2024-01-30T04:01:51;10.00;1.00
27747;DHT22;15138;51.012;4.692;2024-01-30T04:04:19;10.00;1.00
27747;DHT22;15138;51.012;4.692;2024-01-30T04:06:49;10.00;1.00
27747;DHT22;15138;51.012;4.692;2024-01-30T04:09:17;10.10;1.00
27747;DHT22;15138;51.012;4.692;2024-01-30T04:11:46;10.10;1.00
27747;DHT22;15138;51.012;4.692;2024-01-30T04:14:14;10.10;1.00
27747;DHT22;15138;51.012;4.692;2024-01-30T04:16:42;10.10;1.00
27747;DHT22;15138;51.012;4.692;2024-01-30T04:19:10;10.10;1.00
27747;DHT22;15138;51.012;4.692;2024-01-30T04:21:38;10.10;1.00
27747;DHT22;15138;51.012;4.692;2024-01-30T04:24:08;10.10;1.00
27747;DHT22;15138;51.012;4.692;2024-01-30T04:26:36;10.10;1.00
27747;DHT22;15138;51.012;4.692;2024-01-30T04:29:04;10.10;1.00
27747;DHT22;15138;51.012;4.692;2024-01-30T04:31:35;10.10;1.00
27747;DHT22;15138;51.012;4.692;2024-01-30T04:34:04;10.20;1.00
27747;DHT22;15138;51.012;4.692;2024-01-30T04:36:32;10.10;1.00
27747;DHT22;15138;51.012;4.692;2024-01-30T04:39:00;10.10;1.00
27747;DHT22;15138;51.012;4.692;2024-01-30T04:41:29;10.10;1.00
27747;DHT22;15138;51.012;4.692;2024-01-30T04:43:59;10.10;1.00
27747;DHT22;15138;51.012;4.692;2024-01-30T04:46:27;10.10;1.00
27747;DHT22;15138;51.012;4.692;2024-01-30T04:48:55;10.10;1.00
27747;DHT22;15138;51.012;4.692;2024-01-30T04:51:23;10.10;1.00
27747;DHT22;15138;51.012;4.692;2024-01-30T04:53:51;10.10;1.00
27747;DHT22;15138;51.012;4.692;2024-01-30T04:56:19;10.10;1.00
27747;DHT22;15138;51.012;4.692;2024-01-30T04:58:49;10.10;1.00
27747;DHT22;15138;51.012;4.692;2024-01-30T05:01:17;10.10;1.00
27747;DHT22;15138;51.012;4.692;2024-01-30T05:03:46;10.10;1.00
27747;DHT22;15138;51.012;4.692;2024-01-30T05:06:24;10.10;1.00
27747;DHT22;15138;51.012;4.692;2024-01-30T05:08:52;10.10;1.00
27747;DHT22;15138;51.012;4.692;2024-01-30T05:11:20;10.10;1.00
27747;DHT22;15138;51.012;4.692;2024-01-30T05:13:50;10.10;1.00
27747;DHT22;15138;51.012;4.692;2024-01-30T05:16:18;10.10;1.00
27747;DHT22;15138;51.012;4.692;2024-01-30T05:18:46;10.10;1.00
27747;DHT22;15138;51.012;4.692;2024-01-30T05:21:14;10.10;1.00
27747;DHT22;15138;51.012;4.692;2024-01-30T05:23:43;10.10;1.00
27747;DHT22;15138;51.012;4.692;2024-01-30T05:26:11;10.10;1.00
27747;DHT22;15138;51.012;4.692;2024-01-30T05:28:39;10.10;1.00
27747;DHT22;15138;51.012;4.692;2024-01-30T05:31:08;10.10;1.00
27747;DHT22;15138;51.012;4.692;2024-01-30T05:33:36;10.10;1.00
27747;DHT22;15138;51.012;4.692;2024-01-30T05:36:05;10.10;1.00
27747;DHT22;15138;51.012;4.692;2024-01-30T05:38:33;10.20;1.00
27747;DHT22;15138;51.012;4.692;2024-01-30T05:41:04;10.20;1.00
27747;DHT22;15138;51.012;4.692;2024-01-30T05:43:32;10.20;1.00
27747;DHT22;15138;51.012;4.692;2024-01-30T05:46:01;10.20;1.00
27747;DHT22;15138;51.012;4.692;2024-01-30T05:48:30;10.20;1.00
27747;DHT22;15138;51.012;4.692;2024-01-30T05:50:58;10.10;1.00
27747;DHT22;15138;51.012;4.692;2024-01-30T05:53:27;10.10;1.00
27747;DHT22;15138;51.012;4.692;2024-01-30T05:55:55;10.20;1.00
27747;DHT22;15138;51.012;4.692;2024-01-30T05:58:24;10.20;1.00
27747;DHT22;15138;51.012;4.692;2024-01-30T06:00:51;10.20;1.00
27747;DHT22;15138;51.012;4.692;2024-01-30T06:03:19;10.10;1.00
27747;DHT22;15138;51.012;4.692;2024-01-30T06:05:49;10.20;1.00
27747;DHT22;15138;51.012;4.692;2024-01-30T06:08:17;10.20;1.00
27747;DHT22;15138;51.012;4.692;2024-01-30T06:10:45;10.20;1.00
27747;DHT22;15138;51.012;4.692;2024-01-30T06:13:14;10.20;1.00
27747;DHT22;15138;51.012;4.692;2024-01-30T06:15:43;10.20;1.00
27747;DHT22;15138;51.012;4.692;2024-01-30T06:18:11;10.20;1.00
27747;DHT22;15138;51.012;4.692;2024-01-30T06:20:40;10.20;1.00
27747;DHT22;15138;51.012;4.692;2024-01-30T06:23:09;10.20;1.00
27747;DHT22;15138;51.012;4.692;2024-01-30T06:25:39;10.20;1.00
27747;DHT22;15138;51.012;4.692;2024-01-30T06:28:08;10.20;1.00
27747;DHT22;15138;51.012;4.692;2024-01-30T06:30:36;10.20;1.00
27747;DHT22;15138;51.012;4.692;2024-01-30T06:33:04;10.30;1.00
27747;DHT22;15138;51.012;4.692;2024-01-30T06:35:32;10.20;1.00
27747;DHT22;15138;51.012;4.692;2024-01-30T06:38:03;10.30;1.00
27747;DHT22;15138;51.012;4.692;2024-01-30T06:40:32;10.30;1.00
27747;DHT22;15138;51.012;4.692;2024-01-30T06:43:01;10.20;1.00
27747;DHT22;15138;51.012;4.692;2024-01-30T06:45:29;10.20;1.00
27747;DHT22;15138;51.012;4.692;2024-01-30T06:47:57;10.20;1.00
27747;DHT22;15138;51.012;4.692;2024-01-30T06:50:26;10.30;1.00
27747;DHT22;15138;51.012;4.692;2024-01-30T06:52:54;10.30;1.00
27747;DHT22;15138;51.012;4.692;2024-01-30T06:55:22;10.30;1.00
27747;DHT22;15138;51.012;4.692;2024-01-30T06:57:52;10.40;1.00
27747;DHT22;15138;51.012;4.692;2024-01-30T07:00:20;10.40;1.00
27747;DHT22;15138;51.012;4.692;2024-01-30T07:02:49;10.30;1.00
27747;DHT22;15138;51.012;4.692;2024-01-30T07:05:17;10.30;1.00
27747;DHT22;15138;51.012;4.692;2024-01-30T07:07:45;10.30;1.00
27747;DHT22;15138;51.012;4.692;2024-01-30T07:10:14;10.40;1.00
27747;DHT22;15138;51.012;4.692;2024-01-30T07:12:42;10.40;1.00
27747;DHT22;15138;51.012;4.692;2024-01-30T07:15:12;10.30;1.00
27747;DHT22;15138;51.012;4.692;2024-01-30T07:17:43;10.30;1.00
27747;DHT22;15138;51.012;4.692;2024-01-30T07:20:12;10.30;1.00
27747;DHT22;15138;51.012;4.692;2024-01-30T07:22:43;10.30;1.00
27747;DHT22;15138;51.012;4.692;2024-01-30T07:25:12;10.20;1.00
27747;DHT22;15138;51.012;4.692;2024-01-30T07:27:40;10.30;1.00
27747;DHT22;15138;51.012;4.692;2024-01-30T07:30:09;10.20;1.00
27747;DHT22;15138;51.012;4.692;2024-01-30T07:32:38;10.20;1.00
27747;DHT22;15138;51.012;4.692;2024-01-30T07:35:07;10.20;1.00
27747;DHT22;15138;51.012;4.692;2024-01-30T07:37:36;10.30;1.00
27747;DHT22;15138;51.012;4.692;2024-01-30T07:40:05;10.30;1.00
27747;DHT22;15138;51.012;4.692;2024-01-30T07:42:33;10.30;1.00
27747;DHT22;15138;51.012;4.692;2024-01-30T07:45:02;10.30;6.00
27747;DHT22;15138;51.012;4.692;2024-01-30T07:47:30;10.30;3.80
27747;DHT22;15138;51.012;4.692;2024-01-30T07:50:01;10.30;2.80
27747;DHT22;15138;51.012;4.692;2024-01-30T07:52:29;10.30;16.60
27747;DHT22;15138;51.012;4.692;2024-01-30T07:54:57;10.30;13.80
27747;DHT22;15138;51.012;4.692;2024-01-30T07:57:25;10.30;12.40
27747;DHT22;15138;51.012;4.692;2024-01-30T07:59:54;10.40;8.60
27747;DHT22;15138;51.012;4.692;2024-01-30T08:02:22;10.40;14.20
27747;DHT22;15138;51.012;4.692;2024-01-30T08:04:50;10.40;11.90
27747;DHT22;15138;51.012;4.692;2024-01-30T08:07:20;10.40;20.20
27747;DHT22;15138;51.012;4.692;2024-01-30T08:09:49;10.40;13.30
27747;DHT22;15138;51.012;4.692;2024-01-30T08:12:17;10.50;15.50
27747;DHT22;15138;51.012;4.692;2024-01-30T08:14:46;10.40;6.50
27747;DHT22;15138;51.012;4.692;2024-01-30T08:17:14;10.50;12.40
27747;DHT22;15138;51.012;4.692;2024-01-30T08:19:42;10.50;11.50
27747;DHT22;15138;51.012;4.692;2024-01-30T08:22:12;10.50;16.50
27747;DHT22;15138;51.012;4.692;2024-01-30T08:24:42;10.50;19.30
27747;DHT22;15138;51.012;4.692;2024-01-30T08:27:10;10.60;31.50
27747;DHT22;15138;51.012;4.692;2024-01-30T08:29:39;10.60;30.80
27747;DHT22;15138;51.012;4.692;2024-01-30T08:32:07;10.60;35.40
27747;DHT22;15138;51.012;4.692;2024-01-30T08:34:35;10.60;34.60
27747;DHT22;15138;51.012;4.692;2024-01-30T08:37:04;10.60;32.90
27747;DHT22;15138;51.012;4.692;2024-01-30T08:39:32;10.60;23.00
27747;DHT22;15138;51.012;4.692;2024-01-30T08:42:02;10.60;18.20
27747;DHT22;15138;51.012;4.692;2024-01-30T08:44:30;10.60;27.10
27747;DHT22;15138;51.012;4.692;2024-01-30T08:46:58;10.70;30.60
27747;DHT22;15138;51.012;4.692;2024-01-30T08:49:26;10.70;28.60
27747;DHT22;15138;51.012;4.692;2024-01-30T08:51:55;10.80;37.80
27747;DHT22;15138;51.012;4.692;2024-01-30T08:54:24;10.80;34.00
27747;DHT22;15138;51.012;4.692;2024-01-30T08:56:53;10.80;23.30
27747;DHT22;15138;51.012;4.692;2024-01-30T08:59:24;10.90;26.60
27747;DHT22;15138;51.012;4.692;2024-01-30T09:01:52;10.90;21.50
27747;DHT22;15138;51.012;4.692;2024-01-30T09:04:37;11.00;17.90
27747;DHT22;15138;51.012;4.692;2024-01-30T09:07:06;11.00;22.60
27747;DHT22;15138;51.012;4.692;2024-01-30T09:09:37;11.10;34.90
27747;DHT22;15138;51.012;4.692;2024-01-30T09:12:07;11.10;27.10
27747;DHT22;15138;51.012;4.692;2024-01-30T09:19:37;11.10;13.40
27747;DHT22;15138;51.012;4.692;2024-01-30T09:22:06;11.10;10.10
27747;DHT22;15138;51.012;4.692;2024-01-30T09:24:33;11.10;15.60
27747;DHT22;15138;51.012;4.692;2024-01-30T09:27:01;11.10;12.70
27747;DHT22;15138;51.012;4.692;2024-01-30T09:29:29;11.10;17.80
27747;DHT22;15138;51.012;4.692;2024-01-30T09:31:59;11.20;22.50
27747;DHT22;15138;51.012;4.692;2024-01-30T09:34:27;11.20;23.90
27747;DHT22;15138;51.012;4.692;2024-01-30T09:36:55;11.20;29.80
27747;DHT22;15138;51.012;4.692;2024-01-30T09:39:24;11.30;59.60
27747;DHT22;15138;51.012;4.692;2024-01-30T09:44:26;11.50;99.90
27747;DHT22;15138;51.012;4.692;2024-01-30T09:46:56;11.50;79.50
27747;DHT22;15138;51.012;4.692;2024-01-30T09:49:32;11.50;85.60
27747;DHT22;15138;51.012;4.692;2024-01-30T09:52:01;11.70;95.50
27747;DHT22;15138;51.012;4.692;2024-01-30T09:57:03;11.80;76.70
27747;DHT22;15138;51.012;4.692;2024-01-30T09:59:31;11.80;71.20
27747;DHT22;15138;51.012;4.692;2024-01-30T10:01:59;11.90;69.00
27747;DHT22;15138;51.012;4.692;2024-01-30T10:04:28;11.90;57.80
27747;DHT22;15138;51.012;4.692;2024-01-30T10:06:57;11.90;47.60
27747;DHT22;15138;51.012;4.692;2024-01-30T10:09:31;12.00;65.70
27747;DHT22;15138;51.012;4.692;2024-01-30T10:11:59;12.00;39.20
27747;DHT22;15138;51.012;4.692;2024-01-30T10:14:27;12.00;21.50
27747;DHT22;15138;51.012;4.692;2024-01-30T10:19:32;12.10;5.90
27747;DHT22;15138;51.012;4.692;2024-01-30T10:22:02;12.20;99.90
27747;DHT22;15138;51.012;4.692;2024-01-30T10:24:31;12.20;1.00
27747;DHT22;15138;51.012;4.692;2024-01-30T11:22:41;12.20;1.00
27747;DHT22;15138;51.012;4.692;2024-01-30T11:25:16;12.00;1.00
27747;DHT22;15138;51.012;4.692;2024-01-30T11:27:45;11.90;1.00
27747;DHT22;15138;51.012;4.692;2024-01-30T11:30:22;11.80;1.00
27747;DHT22;15138;51.012;4.692;2024-01-30T11:33:01;11.70;1.00
27747;DHT22;15138;51.012;4.692;2024-01-30T11:35:33;11.70;99.90
27747;DHT22;15138;51.012;4.692;2024-01-30T11:38:02;11.60;99.90
27747;DHT22;15138;51.012;4.692;2024-01-30T11:40:33;11.60;99.90
27747;DHT22;15138;51.012;4.692;2024-01-30T11:43:04;11.60;99.90
27747;DHT22;15138;51.012;4.692;2024-01-30T11:45:34;11.70;99.90
27747;DHT22;15138;51.012;4.692;2024-01-30T11:48:03;11.70;99.90
27747;DHT22;15138;51.012;4.692;2024-01-30T11:50:33;11.80;99.90
27747;DHT22;15138;51.012;4.692;2024-01-30T11:53:02;12.00;99.90
27747;DHT22;15138;51.012;4.692;2024-01-30T11:55:32;11.80;99.90
27747;DHT22;15138;51.012;4.692;2024-01-30T11:58:01;11.80;99.90
27747;DHT22;15138;51.012;4.692;2024-01-30T12:00:31;11.80;99.90
27747;DHT22;15138;51.012;4.692;2024-01-30T12:03:00;11.70;99.90
27747;DHT22;15138;51.012;4.692;2024-01-30T12:05:30;11.80;99.90
27747;DHT22;15138;51.012;4.692;2024-01-30T12:07:59;11.70;99.90
27747;DHT22;15138;51.012;4.692;2024-01-30T12:10:28;11.60;83.30
27747;DHT22;15138;51.012;4.692;2024-01-30T12:13:00;11.70;57.10
27747;DHT22;15138;51.012;4.692;2024-01-30T12:15:29;11.80;46.10
27747;DHT22;15138;51.012;4.692;2024-01-30T12:18:04;11.70;15.80
27747;DHT22;15138;51.012;4.692;2024-01-30T12:20:33;11.90;12.30
27747;DHT22;15138;51.012;4.692;2024-01-30T12:23:01;12.40;9.00
27747;DHT22;15138;51.012;4.692;2024-01-30T12:25:30;12.50;1.00
27747;DHT22;15138;51.012;4.692;2024-01-30T12:28:00;13.00;99.90
27747;DHT22;15138;51.012;4.692;2024-01-30T12:30:29;12.50;1.00
27747;DHT22;15138;51.012;4.692;2024-01-30T12:32:58;12.40;1.00
27747;DHT22;15138;51.012;4.692;2024-01-30T12:35:26;12.30;1.00
27747;DHT22;15138;51.012;4.692;2024-01-30T12:37:58;12.70;1.00
27747;DHT22;15138;51.012;4.692;2024-01-30T12:40:27;13.20;1.00
27747;DHT22;15138;51.012;4.692;2024-01-30T12:42:56;13.10;1.00
27747;DHT22;15138;51.012;4.692;2024-01-30T12:45:26;13.70;1.00
27747;DHT22;15138;51.012;4.692;2024-01-30T12:50:22;14.60;1.00
27747;DHT22;15138;51.012;4.692;2024-01-30T12:52:51;15.20;1.00
27747;DHT22;15138;51.012;4.692;2024-01-30T12:55:19;14.80;1.00
27747;DHT22;15138;51.012;4.692;2024-01-30T12:57:47;14.60;1.00
27747;DHT22;15138;51.012;4.692;2024-01-30T13:00:16;14.40;1.00
27747;DHT22;15138;51.012;4.692;2024-01-30T13:02:47;14.20;1.00
27747;DHT22;15138;51.012;4.692;2024-01-30T13:05:16;14.00;1.00
27747;DHT22;15138;51.012;4.692;2024-01-30T13:07:44;13.50;1.00
27747;DHT22;15138;51.012;4.692;2024-01-30T13:10:12;13.10;1.00
27747;DHT22;15138;51.012;4.692;2024-01-30T13:12:41;13.40;1.00
27747;DHT22;15138;51.012;4.692;2024-01-30T13:15:09;14.00;1.00
27747;DHT22;15138;51.012;4.692;2024-01-30T13:17:38;14.40;1.00
27747;DHT22;15138;51.012;4.692;2024-01-30T13:20:09;15.20;1.00
27747;DHT22;15138;51.012;4.692;2024-01-30T13:22:38;15.00;1.00
27747;DHT22;15138;51.012;4.692;2024-01-30T13:25:07;15.40;1.00
27747;DHT22;15138;51.012;4.692;2024-01-30T13:27:36;15.40;1.00
27747;DHT22;15138;51.012;4.692;2024-01-30T13:30:05;14.60;1.00
27747;DHT22;15138;51.012;4.692;2024-01-30T13:32:33;14.90;1.00
27747;DHT22;15138;51.012;4.692;2024-01-30T13:35:01;15.10;1.00
27747;DHT22;15138;51.012;4.692;2024-01-30T13:37:31;14.60;1.00
27747;DHT22;15138;51.012;4.692;2024-01-30T13:40:00;14.40;99.90
27747;DHT22;15138;51.012;4.692;2024-01-30T13:42:32;14.40;99.90
27747;DHT22;15138;51.012;4.692;2024-01-30T13:45:01;14.10;99.90
27747;DHT22;15138;51.012;4.692;2024-01-30T13:47:29;13.70;99.90
27747;DHT22;15138;51.012;4.692;2024-01-30T13:49:57;13.80;99.90
27747;DHT22;15138;51.012;4.692;2024-01-30T13:52:26;13.70;99.90
27747;DHT22;15138;51.012;4.692;2024-01-30T13:55:05;13.60;1.00
27747;DHT22;15138;51.012;4.692;2024-01-30T13:57:33;13.50;1.00
27747;DHT22;15138;51.012;4.692;2024-01-30T14:00:03;13.30;1.00
27747;DHT22;15138;51.012;4.692;2024-01-30T14:02:34;13.30;1.00
27747;DHT22;15138;51.012;4.692;2024-01-30T14:05:02;13.00;1.00
27747;DHT22;15138;51.012;4.692;2024-01-30T14:07:32;12.80;1.00
27747;DHT22;15138;51.012;4.692;2024-01-30T14:10:01;12.30;1.00
27747;DHT22;15138;51.012;4.692;2024-01-30T14:12:33;12.60;1.00
27747;DHT22;15138;51.012;4.692;2024-01-30T14:15:01;12.20;1.00
27747;DHT22;15138;51.012;4.692;2024-01-30T14:17:45;12.20;1.00
27747;DHT22;15138;51.012;4.692;2024-01-30T14:20:15;12.20;1.00
27747;DHT22;15138;51.012;4.692;2024-01-30T14:22:45;12.30;1.00
27747;DHT22;15138;51.012;4.692;2024-01-30T14:25:13;12.30;1.00
27747;DHT22;15138;51.012;4.692;2024-01-30T14:27:44;12.30;1.00
27747;DHT22;15138;51.012;4.692;2024-01-30T14:30:12;12.20;1.00
27747;DHT22;15138;51.012;4.692;2024-01-30T14:32:40;12.10;1.00
27747;DHT22;15138;51.012;4.692;2024-01-30T14:35:11;12.10;1.00
27747;DHT22;15138;51.012;4.692;2024-01-30T14:37:40;12.00;1.00
27747;DHT22;15138;51.012;4.692;2024-01-30T14:40:09;11.80;1.00
27747;DHT22;15138;51.012;4.692;2024-01-30T14:42:37;11.60;1.00
27747;DHT22;15138;51.012;4.692;2024-01-30T14:45:07;11.70;1.00
27747;DHT22;15138;51.012;4.692;2024-01-30T14:47:36;11.60;1.00
27747;DHT22;15138;51.012;4.692;2024-01-30T14:50:05;11.60;1.00
27747;DHT22;15138;51.012;4.692;2024-01-30T14:52:35;11.50;1.00
27747;DHT22;15138;51.012;4.692;2024-01-30T14:55:04;11.50;1.00
27747;DHT22;15138;51.012;4.692;2024-01-30T14:57:33;11.50;1.00
27747;DHT22;15138;51.012;4.692;2024-01-30T15:00:03;11.50;1.00
27747;DHT22;15138;51.012;4.692;2024-01-30T15:02:33;11.40;1.00
27747;DHT22;15138;51.012;4.692;2024-01-30T15:05:02;11.30;1.00
27747;DHT22;15138;51.012;4.692;2024-01-30T15:07:31;11.10;1.00
27747;DHT22;15138;51.012;4.692;2024-01-30T15:10:06;11.10;1.00
27747;DHT22;15138;51.012;4.692;2024-01-30T15:12:35;11.20;1.00
27747;DHT22;15138;51.012;4.692;2024-01-30T15:15:04;11.20;1.00
27747;DHT22;15138;51.012;4.692;2024-01-30T15:17:34;11.20;1.00
27747;DHT22;15138;51.012;4.692;2024-01-30T15:20:03;11.00;1.00
27747;DHT22;15138;51.012;4.692;2024-01-30T15:22:32;10.60;1.00
27747;DHT22;15138;51.012;4.692;2024-01-30T15:25:00;10.80;1.00
27747;DHT22;15138;51.012;4.692;2024-01-30T15:27:30;10.60;1.00
27747;DHT22;15138;51.012;4.692;2024-01-30T15:29:58;10.80;1.00
27747;DHT22;15138;51.012;4.692;2024-01-30T15:32:26;10.70;1.00
27747;DHT22;15138;51.012;4.692;2024-01-30T15:34:56;10.60;1.00
27747;DHT22;15138;51.012;4.692;2024-01-30T15:37:28;10.60;1.00
27747;DHT22;15138;51.012;4.692;2024-01-30T15:39:56;10.50;1.00
27747;DHT22;15138;51.012;4.692;2024-01-30T15:42:24;10.40;1.00
27747;DHT22;15138;51.012;4.692;2024-01-30T15:44:52;10.40;1.00
27747;DHT22;15138;51.012;4.692;2024-01-30T15:47:21;10.40;1.00
27747;DHT22;15138;51.012;4.692;2024-01-30T15:49:49;10.30;1.00
27747;DHT22;15138;51.012;4.692;2024-01-30T15:52:19;10.30;1.00
27747;DHT22;15138;51.012;4.692;2024-01-30T15:54:47;10.30;1.00
27747;DHT22;15138;51.012;4.692;2024-01-30T15:57:15;10.40;1.00
27747;DHT22;15138;51.012;4.692;2024-01-30T15:59:43;10.30;1.00
27747;DHT22;15138;51.012;4.692;2024-01-30T16:02:11;10.30;1.00
27747;DHT22;15138;51.012;4.692;2024-01-30T16:04:41;10.40;1.00
27747;DHT22;15138;51.012;4.692;2024-01-30T16:07:09;10.30;1.00
27747;DHT22;15138;51.012;4.692;2024-01-30T16:09:39;10.30;1.00
27747;DHT22;15138;51.012;4.692;2024-01-30T16:12:07;10.40;1.00
27747;DHT22;15138;51.012;4.692;2024-01-30T16:14:36;10.30;1.00
27747;DHT22;15138;51.012;4.692;2024-01-30T16:17:04;10.20;1.00
27747;DHT22;15138;51.012;4.692;2024-01-30T16:19:32;10.20;1.00
27747;DHT22;15138;51.012;4.692;2024-01-30T16:22:01;10.20;1.00
27747;DHT22;15138;51.012;4.692;2024-01-30T16:24:29;10.20;1.00
27747;DHT22;15138;51.012;4.692;2024-01-30T16:26:58;10.30;1.00
27747;DHT22;15138;51.012;4.692;2024-01-30T16:29:27;10.30;1.00
27747;DHT22;15138;51.012;4.692;2024-01-30T16:31:55;10.20;6.10
27747;DHT22;15138;51.012;4.692;2024-01-30T16:34:24;10.20;14.20
27747;DHT22;15138;51.012;4.692;2024-01-30T16:36:53;10.10;23.90
27747;DHT22;15138;51.012;4.692;2024-01-30T16:39:21;10.00;33.00
27747;DHT22;15138;51.012;4.692;2024-01-30T16:41:49;10.10;94.80
27747;DHT22;15138;51.012;4.692;2024-01-30T16:44:19;10.00;99.90
27747;DHT22;15138;51.012;4.692;2024-01-30T16:46:47;10.00;99.90
27747;DHT22;15138;51.012;4.692;2024-01-30T16:49:18;9.90;99.90
27747;DHT22;15138;51.012;4.692;2024-01-30T16:51:46;9.80;99.90
27747;DHT22;15138;51.012;4.692;2024-01-30T16:54:14;9.80;99.90
27747;DHT22;15138;51.012;4.692;2024-01-30T16:56:43;9.80;99.90
27747;DHT22;15138;51.012;4.692;2024-01-30T16:59:15;9.80;99.90
27747;DHT22;15138;51.012;4.692;2024-01-30T17:01:46;9.70;99.90
27747;DHT22;15138;51.012;4.692;2024-01-30T17:04:15;9.60;99.90
27747;DHT22;15138;51.012;4.692;2024-01-30T17:06:45;9.60;99.90